sensor_id;sensor_type;location;lat;lon;timestamp;P1;durP1;ratioP1;P2;durP2;ratioP2
78989;SDS011;68390;52.130;21.218;2023-08-20T00:01:56;35.30;;;30.05;;
78989;SDS011;68390;52.130;21.218;2023-08-20T00:04:24;31.73;;;26.38;;
78989;SDS011;68390;52.130;21.218;2023-08-20T00:06:52;29.45;;;24.10;;
78989;SDS011;68390;52.130;21.218;2023-08-20T00:09:18;27.02;;;24.20;;
78989;SDS011;68390;52.130;21.218;2023-08-20T00:11:45;28.02;;;24.95;;
78989;SDS011;68390;52.130;21.218;2023-08-20T00:14:14;32.33;;;28.17;;
78989;SDS011;68390;52.130;21.218;2023-08-20T00:16:41;34.90;;;29.77;;
78989;SDS011;68390;52.130;21.218;2023-08-20T00:19:07;36.72;;;30.77;;
78989;SDS011;68390;52.130;21.218;2023-08-20T00:21:33;37.83;;;31.52;;
78989;SDS011;68390;52.130;21.218;2023-08-20T00:24:00;25.80;;;22.17;;
78989;SDS011;68390;52.130;21.218;2023-08-20T00:26:26;29.15;;;24.58;;
78989;SDS011;68390;52.130;21.218;2023-08-20T00:28:52;33.30;;;28.17;;
78989;SDS011;68390;52.130;21.218;2023-08-20T00:31:17;30.88;;;26.35;;
78989;SDS011;68390;52.130;21.218;2023-08-20T00:33:42;33.10;;;25.77;;
78989;SDS011;68390;52.130;21.218;2023-08-20T00:36:08;36.95;;;29.95;;
78989;SDS011;68390;52.130;21.218;2023-08-20T00:38:33;33.95;;;29.55;;
78989;SDS011;68390;52.130;21.218;2023-08-20T00:40:59;31.00;;;27.23;;
78989;SDS011;68390;52.130;21.218;2023-08-20T00:43:25;29.60;;;26.30;;
78989;SDS011;68390;52.130;21.218;2023-08-20T00:45:51;30.38;;;25.80;;
78989;SDS011;68390;52.130;21.218;2023-08-20T00:48:18;33.92;;;27.92;;
78989;SDS011;68390;52.130;21.218;2023-08-20T00:50:46;33.67;;;27.48;;
78989;SDS011;68390;52.130;21.218;2023-08-20T00:53:12;38.08;;;30.40;;
78989;SDS011;68390;52.130;21.218;2023-08-20T00:55:40;35.72;;;29.73;;
78989;SDS011;68390;52.130;21.218;2023-08-20T00:58:10;32.38;;;26.48;;
78989;SDS011;68390;52.130;21.218;2023-08-20T01:00:36;35.63;;;30.25;;
78989;SDS011;68390;52.130;21.218;2023-08-20T01:03:02;45.45;;;36.85;;
78989;SDS011;68390;52.130;21.218;2023-08-20T01:05:29;39.88;;;31.55;;
78989;SDS011;68390;52.130;21.218;2023-08-20T01:13:29;55.50;;;43.47;;
78989;SDS011;68390;52.130;21.218;2023-08-20T01:15:54;43.05;;;35.65;;
78989;SDS011;68390;52.130;21.218;2023-08-20T01:18:20;42.85;;;34.90;;
78989;SDS011;68390;52.130;21.218;2023-08-20T01:20:47;45.65;;;37.75;;
78989;SDS011;68390;52.130;21.218;2023-08-20T01:26:11;44.10;;;35.92;;
78989;SDS011;68390;52.130;21.218;2023-08-20T01:28:46;41.80;;;35.63;;
78989;SDS011;68390;52.130;21.218;2023-08-20T01:31:12;29.33;;;25.92;;
78989;SDS011;68390;52.130;21.218;2023-08-20T01:33:39;35.83;;;30.33;;
78989;SDS011;68390;52.130;21.218;2023-08-20T01:36:06;33.35;;;28.77;;
78989;SDS011;68390;52.130;21.218;2023-08-20T01:38:35;36.20;;;31.27;;
78989;SDS011;68390;52.130;21.218;2023-08-20T01:41:01;38.00;;;33.22;;
78989;SDS011;68390;52.130;21.218;2023-08-20T01:43:27;36.70;;;30.50;;
78989;SDS011;68390;52.130;21.218;2023-08-20T01:45:52;32.42;;;27.52;;
78989;SDS011;68390;52.130;21.218;2023-08-20T01:48:18;33.17;;;28.95;;
78989;SDS011;68390;52.130;21.218;2023-08-20T01:50:43;28.27;;;24.27;;
78989;SDS011;68390;52.130;21.218;2023-08-20T01:53:11;27.30;;;23.00;;
78989;SDS011;68390;52.130;21.218;2023-08-20T01:55:37;31.25;;;27.13;;
78989;SDS011;68390;52.130;21.218;2023-08-20T01:58:03;36.13;;;28.27;;
78989;SDS011;68390;52.130;21.218;2023-08-20T02:00:29;30.63;;;25.13;;
78989;SDS011;68390;52.130;21.218;2023-08-20T02:02:55;28.88;;;25.88;;
78989;SDS011;68390;52.130;21.218;2023-08-20T02:05:22;32.22;;;27.15;;
78989;SDS011;68390;52.130;21.218;2023-08-20T02:07:48;34.30;;;27.15;;
78989;SDS011;68390;52.130;21.218;2023-08-20T02:10:13;32.15;;;27.45;;
78989;SDS011;68390;52.130;21.218;2023-08-20T02:12:40;28.73;;;25.63;;
78989;SDS011;68390;52.130;21.218;2023-08-20T02:15:06;30.40;;;25.90;;
78989;SDS011;68390;52.130;21.218;2023-08-20T02:17:32;29.52;;;26.38;;
78989;SDS011;68390;52.130;21.218;2023-08-20T02:19:58;27.98;;;24.85;;
78989;SDS011;68390;52.130;21.218;2023-08-20T02:22:24;32.33;;;27.80;;
78989;SDS011;68390;52.130;21.218;2023-08-20T02:24:49;33.47;;;28.02;;
78989;SDS011;68390;52.130;21.218;2023-08-20T02:27:15;30.42;;;24.20;;
78989;SDS011;68390;52.130;21.218;2023-08-20T02:29:40;32.03;;;28.38;;
78989;SDS011;68390;52.130;21.218;2023-08-20T02:32:06;25.13;;;21.50;;
78989;SDS011;68390;52.130;21.218;2023-08-20T02:34:32;27.83;;;23.75;;
78989;SDS011;68390;52.130;21.218;2023-08-20T02:36:58;32.03;;;27.48;;
78989;SDS011;68390;52.130;21.218;2023-08-20T02:39:24;31.90;;;27.77;;
78989;SDS011;68390;52.130;21.218;2023-08-20T02:41:50;30.17;;;26.17;;
78989;SDS011;68390;52.130;21.218;2023-08-20T02:44:15;28.08;;;25.13;;
78989;SDS011;68390;52.130;21.218;2023-08-20T02:46:41;26.50;;;23.30;;
78989;SDS011;68390;52.130;21.218;2023-08-20T02:49:06;27.60;;;24.73;;
78989;SDS011;68390;52.130;21.218;2023-08-20T02:51:32;30.05;;;25.30;;
78989;SDS011;68390;52.130;21.218;2023-08-20T02:53:59;24.08;;;21.42;;
78989;SDS011;68390;52.130;21.218;2023-08-20T02:56:24;24.42;;;20.10;;
78989;SDS011;68390;52.130;21.218;2023-08-20T02:58:49;31.70;;;25.65;;
78989;SDS011;68390;52.130;21.218;2023-08-20T03:01:21;23.48;;;20.88;;
78989;SDS011;68390;52.130;21.218;2023-08-20T03:03:47;30.83;;;24.27;;
78989;SDS011;68390;52.130;21.218;2023-08-20T03:06:13;25.85;;;22.83;;
78989;SDS011;68390;52.130;21.218;2023-08-20T03:08:39;30.17;;;25.35;;
78989;SDS011;68390;52.130;21.218;2023-08-20T03:11:04;23.85;;;21.10;;
78989;SDS011;68390;52.130;21.218;2023-08-20T03:13:30;27.50;;;24.48;;
78989;SDS011;68390;52.130;21.218;2023-08-20T03:15:55;31.05;;;25.90;;
78989;SDS011;68390;52.130;21.218;2023-08-20T03:18:21;29.92;;;24.63;;
78989;SDS011;68390;52.130;21.218;2023-08-20T03:20:47;26.20;;;22.42;;
78989;SDS011;68390;52.130;21.218;2023-08-20T03:23:12;28.35;;;25.27;;
78989;SDS011;68390;52.130;21.218;2023-08-20T03:25:38;29.50;;;24.90;;
78989;SDS011;68390;52.130;21.218;2023-08-20T03:28:04;35.33;;;28.35;;
78989;SDS011;68390;52.130;21.218;2023-08-20T03:30:30;25.90;;;22.65;;
78989;SDS011;68390;52.130;21.218;2023-08-20T03:32:56;23.80;;;20.55;;
78989;SDS011;68390;52.130;21.218;2023-08-20T03:35:22;24.23;;;21.33;;
78989;SDS011;68390;52.130;21.218;2023-08-20T03:37:48;25.33;;;22.63;;
78989;SDS011;68390;52.130;21.218;2023-08-20T03:40:14;28.27;;;23.00;;
78989;SDS011;68390;52.130;21.218;2023-08-20T03:42:40;33.40;;;26.70;;
78989;SDS011;68390;52.130;21.218;2023-08-20T03:45:05;34.28;;;26.48;;
78989;SDS011;68390;52.130;21.218;2023-08-20T03:47:31;33.78;;;26.50;;
78989;SDS011;68390;52.130;21.218;2023-08-20T03:49:57;25.90;;;21.80;;
78989;SDS011;68390;52.130;21.218;2023-08-20T03:52:23;30.77;;;23.75;;
78989;SDS011;68390;52.130;21.218;2023-08-20T03:54:50;28.98;;;22.60;;
78989;SDS011;68390;52.130;21.218;2023-08-20T03:57:15;37.97;;;26.08;;
78989;SDS011;68390;52.130;21.218;2023-08-20T03:59:41;35.75;;;27.92;;
78989;SDS011;68390;52.130;21.218;2023-08-20T04:02:07;32.42;;;24.35;;
78989;SDS011;68390;52.130;21.218;2023-08-20T04:04:32;34.92;;;27.92;;
78989;SDS011;68390;52.130;21.218;2023-08-20T04:06:59;33.05;;;27.55;;
78989;SDS011;68390;52.130;21.218;2023-08-20T04:09:24;31.02;;;24.80;;
78989;SDS011;68390;52.130;21.218;2023-08-20T04:11:50;28.80;;;23.17;;
78989;SDS011;68390;52.130;21.218;2023-08-20T04:14:19;24.88;;;20.42;;
78989;SDS011;68390;52.130;21.218;2023-08-20T04:16:45;26.80;;;22.00;;
78989;SDS011;68390;52.130;21.218;2023-08-20T04:19:11;23.30;;;20.80;;
78989;SDS011;68390;52.130;21.218;2023-08-20T04:21:36;30.80;;;26.42;;
78989;SDS011;68390;52.130;21.218;2023-08-20T04:24:05;31.67;;;27.85;;
78989;SDS011;68390;52.130;21.218;2023-08-20T04:26:30;31.95;;;28.55;;
78989;SDS011;68390;52.130;21.218;2023-08-20T04:28:55;35.30;;;29.17;;
78989;SDS011;68390;52.130;21.218;2023-08-20T04:31:21;34.85;;;28.58;;
78989;SDS011;68390;52.130;21.218;2023-08-20T04:33:47;27.50;;;24.08;;
78989;SDS011;68390;52.130;21.218;2023-08-20T04:36:13;24.13;;;21.48;;
78989;SDS011;68390;52.130;21.218;2023-08-20T04:38:38;29.73;;;23.95;;
78989;SDS011;68390;52.130;21.218;2023-08-20T04:41:04;26.58;;;23.50;;
78989;SDS011;68390;52.130;21.218;2023-08-20T04:43:29;29.58;;;25.38;;
78989;SDS011;68390;52.130;21.218;2023-08-20T04:45:55;26.95;;;24.05;;
78989;SDS011;68390;52.130;21.218;2023-08-20T04:48:21;23.10;;;20.58;;
78989;SDS011;68390;52.130;21.218;2023-08-20T04:50:46;22.08;;;18.90;;
78989;SDS011;68390;52.130;21.218;2023-08-20T04:53:12;26.90;;;24.00;;
78989;SDS011;68390;52.130;21.218;2023-08-20T04:55:38;31.65;;;27.80;;
78989;SDS011;68390;52.130;21.218;2023-08-20T04:58:04;32.85;;;28.88;;
78989;SDS011;68390;52.130;21.218;2023-08-20T05:00:30;34.60;;;28.10;;
78989;SDS011;68390;52.130;21.218;2023-08-20T05:02:56;34.35;;;27.80;;
78989;SDS011;68390;52.130;21.218;2023-08-20T05:05:21;33.40;;;29.00;;
78989;SDS011;68390;52.130;21.218;2023-08-20T05:07:47;32.10;;;28.45;;
78989;SDS011;68390;52.130;21.218;2023-08-20T05:10:16;30.15;;;26.98;;
78989;SDS011;68390;52.130;21.218;2023-08-20T05:12:42;36.25;;;28.58;;
78989;SDS011;68390;52.130;21.218;2023-08-20T05:15:07;30.98;;;27.63;;
78989;SDS011;68390;52.130;21.218;2023-08-20T05:17:33;23.48;;;20.98;;
78989;SDS011;68390;52.130;21.218;2023-08-20T05:19:59;30.25;;;26.55;;
78989;SDS011;68390;52.130;21.218;2023-08-20T05:22:26;33.78;;;29.23;;
78989;SDS011;68390;52.130;21.218;2023-08-20T05:24:52;26.45;;;23.25;;
78989;SDS011;68390;52.130;21.218;2023-08-20T05:27:18;36.65;;;30.83;;
78989;SDS011;68390;52.130;21.218;2023-08-20T05:29:43;30.00;;;24.90;;
78989;SDS011;68390;52.130;21.218;2023-08-20T05:32:09;38.28;;;33.28;;
78989;SDS011;68390;52.130;21.218;2023-08-20T05:34:35;37.67;;;33.10;;
78989;SDS011;68390;52.130;21.218;2023-08-20T05:37:01;31.77;;;28.02;;
78989;SDS011;68390;52.130;21.218;2023-08-20T05:39:27;31.10;;;27.52;;
78989;SDS011;68390;52.130;21.218;2023-08-20T05:41:55;34.67;;;30.95;;
78989;SDS011;68390;52.130;21.218;2023-08-20T05:44:21;31.73;;;27.40;;
78989;SDS011;68390;52.130;21.218;2023-08-20T05:46:47;30.58;;;27.20;;
78989;SDS011;68390;52.130;21.218;2023-08-20T05:49:13;32.47;;;28.98;;
78989;SDS011;68390;52.130;21.218;2023-08-20T05:51:42;29.45;;;26.38;;
78989;SDS011;68390;52.130;21.218;2023-08-20T05:54:08;32.25;;;29.05;;
78989;SDS011;68390;52.130;21.218;2023-08-20T05:56:33;30.85;;;26.98;;
78989;SDS011;68390;52.130;21.218;2023-08-20T05:58:59;26.95;;;24.15;;
78989;SDS011;68390;52.130;21.218;2023-08-20T06:01:25;29.55;;;26.55;;
78989;SDS011;68390;52.130;21.218;2023-08-20T06:03:50;26.88;;;24.00;;
78989;SDS011;68390;52.130;21.218;2023-08-20T06:06:16;31.33;;;25.60;;
78989;SDS011;68390;52.130;21.218;2023-08-20T06:08:42;28.42;;;25.55;;
78989;SDS011;68390;52.130;21.218;2023-08-20T06:11:07;28.05;;;25.25;;
78989;SDS011;68390;52.130;21.218;2023-08-20T06:13:34;29.23;;;26.23;;
78989;SDS011;68390;52.130;21.218;2023-08-20T06:15:59;27.90;;;25.00;;
78989;SDS011;68390;52.130;21.218;2023-08-20T06:18:25;27.50;;;22.42;;
78989;SDS011;68390;52.130;21.218;2023-08-20T06:20:50;27.30;;;24.38;;
78989;SDS011;68390;52.130;21.218;2023-08-20T06:23:16;26.45;;;23.65;;
78989;SDS011;68390;52.130;21.218;2023-08-20T06:25:42;25.73;;;23.13;;
78989;SDS011;68390;52.130;21.218;2023-08-20T06:28:08;24.67;;;21.77;;
78989;SDS011;68390;52.130;21.218;2023-08-20T06:30:34;25.73;;;23.15;;
78989;SDS011;68390;52.130;21.218;2023-08-20T06:33:00;24.85;;;22.00;;
78989;SDS011;68390;52.130;21.218;2023-08-20T06:35:27;23.70;;;21.40;;
78989;SDS011;68390;52.130;21.218;2023-08-20T06:37:52;21.65;;;19.02;;
78989;SDS011;68390;52.130;21.218;2023-08-20T06:40:18;23.20;;;20.77;;
78989;SDS011;68390;52.130;21.218;2023-08-20T06:42:43;27.92;;;22.95;;
78989;SDS011;68390;52.130;21.218;2023-08-20T06:45:09;24.80;;;22.23;;
78989;SDS011;68390;52.130;21.218;2023-08-20T06:47:35;24.13;;;21.58;;
78989;SDS011;68390;52.130;21.218;2023-08-20T06:50:00;23.02;;;20.67;;
78989;SDS011;68390;52.130;21.218;2023-08-20T06:52:26;21.48;;;19.23;;
78989;SDS011;68390;52.130;21.218;2023-08-20T06:54:51;21.73;;;19.52;;
78989;SDS011;68390;52.130;21.218;2023-08-20T06:57:17;22.90;;;20.60;;
78989;SDS011;68390;52.130;21.218;2023-08-20T06:59:43;22.35;;;20.25;;
78989;SDS011;68390;52.130;21.218;2023-08-20T07:02:09;21.67;;;19.40;;
78989;SDS011;68390;52.130;21.218;2023-08-20T07:04:36;22.42;;;19.75;;
78989;SDS011;68390;52.130;21.218;2023-08-20T07:07:01;20.50;;;18.50;;
78989;SDS011;68390;52.130;21.218;2023-08-20T07:09:30;20.08;;;18.00;;
78989;SDS011;68390;52.130;21.218;2023-08-20T07:11:56;18.05;;;16.33;;
78989;SDS011;68390;52.130;21.218;2023-08-20T07:14:21;19.70;;;17.80;;
78989;SDS011;68390;52.130;21.218;2023-08-20T07:16:47;21.27;;;18.05;;
78989;SDS011;68390;52.130;21.218;2023-08-20T07:19:13;21.27;;;18.92;;
78989;SDS011;68390;52.130;21.218;2023-08-20T07:21:38;20.08;;;18.17;;
78989;SDS011;68390;52.130;21.218;2023-08-20T07:24:04;19.83;;;17.85;;
78989;SDS011;68390;52.130;21.218;2023-08-20T07:26:30;18.20;;;16.55;;
78989;SDS011;68390;52.130;21.218;2023-08-20T07:28:56;19.85;;;17.65;;
78989;SDS011;68390;52.130;21.218;2023-08-20T07:31:23;18.00;;;16.40;;
78989;SDS011;68390;52.130;21.218;2023-08-20T07:33:52;17.92;;;16.33;;
78989;SDS011;68390;52.130;21.218;2023-08-20T07:36:21;19.55;;;16.23;;
78989;SDS011;68390;52.130;21.218;2023-08-20T07:38:47;17.27;;;15.57;;
78989;SDS011;68390;52.130;21.218;2023-08-20T07:41:13;16.92;;;14.82;;
78989;SDS011;68390;52.130;21.218;2023-08-20T07:43:40;16.13;;;14.63;;
78989;SDS011;68390;52.130;21.218;2023-08-20T07:46:06;19.67;;;15.68;;
78989;SDS011;68390;52.130;21.218;2023-08-20T07:48:33;15.07;;;13.52;;
78989;SDS011;68390;52.130;21.218;2023-08-20T07:50:59;16.88;;;15.15;;
78989;SDS011;68390;52.130;21.218;2023-08-20T07:53:28;17.15;;;14.98;;
78989;SDS011;68390;52.130;21.218;2023-08-20T07:55:55;16.02;;;13.15;;
78989;SDS011;68390;52.130;21.218;2023-08-20T07:58:21;17.00;;;15.27;;
78989;SDS011;68390;52.130;21.218;2023-08-20T08:00:47;19.63;;;17.55;;
78989;SDS011;68390;52.130;21.218;2023-08-20T08:03:13;17.73;;;16.05;;
78989;SDS011;68390;52.130;21.218;2023-08-20T08:05:49;16.75;;;15.15;;
78989;SDS011;68390;52.130;21.218;2023-08-20T08:08:15;17.55;;;15.75;;
78989;SDS011;68390;52.130;21.218;2023-08-20T08:10:42;19.20;;;14.93;;
78989;SDS011;68390;52.130;21.218;2023-08-20T08:13:10;16.90;;;14.60;;
78989;SDS011;68390;52.130;21.218;2023-08-20T08:15:40;14.38;;;12.98;;
78989;SDS011;68390;52.130;21.218;2023-08-20T08:18:06;16.38;;;13.48;;
78989;SDS011;68390;52.130;21.218;2023-08-20T08:20:33;14.82;;;13.20;;
78989;SDS011;68390;52.130;21.218;2023-08-20T08:23:00;15.82;;;14.30;;
78989;SDS011;68390;52.130;21.218;2023-08-20T08:25:26;20.52;;;16.80;;
78989;SDS011;68390;52.130;21.218;2023-08-20T08:27:52;15.63;;;13.63;;
78989;SDS011;68390;52.130;21.218;2023-08-20T08:30:18;14.43;;;13.02;;
78989;SDS011;68390;52.130;21.218;2023-08-20T08:32:43;16.50;;;13.77;;
78989;SDS011;68390;52.130;21.218;2023-08-20T08:35:09;14.98;;;13.38;;
78989;SDS011;68390;52.130;21.218;2023-08-20T08:37:34;14.98;;;13.48;;
78989;SDS011;68390;52.130;21.218;2023-08-20T08:40:00;15.57;;;13.95;;
78989;SDS011;68390;52.130;21.218;2023-08-20T08:42:26;16.02;;;13.82;;
78989;SDS011;68390;52.130;21.218;2023-08-20T08:44:52;15.15;;;12.75;;
78989;SDS011;68390;52.130;21.218;2023-08-20T08:47:18;14.00;;;12.60;;
78989;SDS011;68390;52.130;21.218;2023-08-20T08:49:45;15.32;;;13.82;;
78989;SDS011;68390;52.130;21.218;2023-08-20T08:52:13;12.82;;;11.63;;
78989;SDS011;68390;52.130;21.218;2023-08-20T08:54:40;11.60;;;10.50;;
78989;SDS011;68390;52.130;21.218;2023-08-20T08:57:06;12.77;;;11.48;;
78989;SDS011;68390;52.130;21.218;2023-08-20T08:59:32;12.50;;;11.05;;
78989;SDS011;68390;52.130;21.218;2023-08-20T09:01:58;13.50;;;11.45;;
78989;SDS011;68390;52.130;21.218;2023-08-20T09:04:23;11.05;;;10.05;;
78989;SDS011;68390;52.130;21.218;2023-08-20T09:06:50;11.95;;;10.73;;
78989;SDS011;68390;52.130;21.218;2023-08-20T09:09:18;12.45;;;10.88;;
78989;SDS011;68390;52.130;21.218;2023-08-20T09:11:45;12.55;;;11.20;;
78989;SDS011;68390;52.130;21.218;2023-08-20T09:14:29;11.57;;;10.48;;
78989;SDS011;68390;52.130;21.218;2023-08-20T09:16:57;12.57;;;11.32;;
78989;SDS011;68390;52.130;21.218;2023-08-20T09:19:23;12.57;;;11.35;;
78989;SDS011;68390;52.130;21.218;2023-08-20T09:21:52;13.35;;;11.43;;
78989;SDS011;68390;52.130;21.218;2023-08-20T09:24:53;12.40;;;11.10;;
78989;SDS011;68390;52.130;21.218;2023-08-20T09:27:11;13.30;;;12.00;;
78989;SDS011;68390;52.130;21.218;2023-08-20T09:29:44;16.40;;;12.48;;
78989;SDS011;68390;52.130;21.218;2023-08-20T09:32:20;13.48;;;12.15;;
78989;SDS011;68390;52.130;21.218;2023-08-20T09:34:50;16.25;;;14.52;;
78989;SDS011;68390;52.130;21.218;2023-08-20T09:37:21;15.45;;;13.93;;
78989;SDS011;68390;52.130;21.218;2023-08-20T09:39:51;16.80;;;15.20;;
78989;SDS011;68390;52.130;21.218;2023-08-20T09:42:17;16.10;;;14.40;;
78989;SDS011;68390;52.130;21.218;2023-08-20T09:44:43;15.98;;;14.43;;
78989;SDS011;68390;52.130;21.218;2023-08-20T09:47:14;13.88;;;12.55;;
78989;SDS011;68390;52.130;21.218;2023-08-20T09:49:44;16.05;;;14.38;;
78989;SDS011;68390;52.130;21.218;2023-08-20T09:52:23;15.95;;;13.82;;
78989;SDS011;68390;52.130;21.218;2023-08-20T09:57:41;18.25;;;15.57;;
78989;SDS011;68390;52.130;21.218;2023-08-20T10:00:07;14.82;;;13.52;;
78989;SDS011;68390;52.130;21.218;2023-08-20T10:02:38;15.73;;;14.23;;
78989;SDS011;68390;52.130;21.218;2023-08-20T10:05:07;16.13;;;14.63;;
78989;SDS011;68390;52.130;21.218;2023-08-20T10:07:35;15.45;;;13.95;;
78989;SDS011;68390;52.130;21.218;2023-08-20T10:10:02;16.00;;;14.30;;
78989;SDS011;68390;52.130;21.218;2023-08-20T10:12:32;15.40;;;13.82;;
78989;SDS011;68390;52.130;21.218;2023-08-20T10:14:59;14.77;;;13.38;;
78989;SDS011;68390;52.130;21.218;2023-08-20T10:17:29;15.10;;;13.50;;
78989;SDS011;68390;52.130;21.218;2023-08-20T10:19:58;13.93;;;12.52;;
78989;SDS011;68390;52.130;21.218;2023-08-20T10:22:39;13.60;;;12.30;;
78989;SDS011;68390;52.130;21.218;2023-08-20T10:25:16;14.27;;;12.82;;
78989;SDS011;68390;52.130;21.218;2023-08-20T10:27:50;14.95;;;13.35;;
78989;SDS011;68390;52.130;21.218;2023-08-20T10:30:18;13.60;;;12.23;;
78989;SDS011;68390;52.130;21.218;2023-08-20T10:32:53;14.63;;;13.23;;
78989;SDS011;68390;52.130;21.218;2023-08-20T10:35:28;13.98;;;12.55;;
78989;SDS011;68390;52.130;21.218;2023-08-20T10:38:16;12.98;;;11.77;;
78989;SDS011;68390;52.130;21.218;2023-08-20T10:43:30;14.40;;;12.90;;
78989;SDS011;68390;52.130;21.218;2023-08-20T10:46:04;12.40;;;11.20;;
78989;SDS011;68390;52.130;21.218;2023-08-20T10:48:32;12.82;;;11.15;;
78989;SDS011;68390;52.130;21.218;2023-08-20T10:51:24;12.77;;;11.48;;
78989;SDS011;68390;52.130;21.218;2023-08-20T10:54:06;13.63;;;12.32;;
78989;SDS011;68390;52.130;21.218;2023-08-20T11:01:45;12.80;;;11.50;;
78989;SDS011;68390;52.130;21.218;2023-08-20T11:04:16;12.57;;;11.38;;
78989;SDS011;68390;52.130;21.218;2023-08-20T11:06:44;12.45;;;11.20;;
78989;SDS011;68390;52.130;21.218;2023-08-20T11:09:10;12.57;;;11.30;;
78989;SDS011;68390;52.130;21.218;2023-08-20T11:11:39;13.15;;;11.75;;
78989;SDS011;68390;52.130;21.218;2023-08-20T11:14:06;16.40;;;11.85;;
78989;SDS011;68390;52.130;21.218;2023-08-20T11:16:33;13.52;;;11.90;;
78989;SDS011;68390;52.130;21.218;2023-08-20T11:19:00;11.93;;;10.77;;
78989;SDS011;68390;52.130;21.218;2023-08-20T11:21:27;13.07;;;11.77;;
78989;SDS011;68390;52.130;21.218;2023-08-20T11:23:54;11.95;;;10.85;;
78989;SDS011;68390;52.130;21.218;2023-08-20T11:26:20;11.82;;;10.65;;
78989;SDS011;68390;52.130;21.218;2023-08-20T11:28:46;10.55;;;9.55;;
78989;SDS011;68390;52.130;21.218;2023-08-20T11:31:12;11.95;;;10.80;;
78989;SDS011;68390;52.130;21.218;2023-08-20T11:33:38;11.27;;;10.00;;
78989;SDS011;68390;52.130;21.218;2023-08-20T11:36:05;13.40;;;11.00;;
78989;SDS011;68390;52.130;21.218;2023-08-20T11:38:30;12.68;;;11.48;;
78989;SDS011;68390;52.130;21.218;2023-08-20T11:40:57;11.90;;;10.60;;
78989;SDS011;68390;52.130;21.218;2023-08-20T11:43:27;12.52;;;11.32;;
78989;SDS011;68390;52.130;21.218;2023-08-20T11:45:55;12.25;;;10.57;;
78989;SDS011;68390;52.130;21.218;2023-08-20T11:48:21;12.02;;;10.80;;
78989;SDS011;68390;52.130;21.218;2023-08-20T11:50:49;12.20;;;11.00;;
78989;SDS011;68390;52.130;21.218;2023-08-20T11:53:15;11.43;;;10.23;;
78989;SDS011;68390;52.130;21.218;2023-08-20T11:55:45;12.00;;;10.80;;
78989;SDS011;68390;52.130;21.218;2023-08-20T11:58:11;12.15;;;11.00;;
78989;SDS011;68390;52.130;21.218;2023-08-20T12:00:37;14.35;;;12.35;;
78989;SDS011;68390;52.130;21.218;2023-08-20T12:03:03;13.15;;;12.05;;
78989;SDS011;68390;52.130;21.218;2023-08-20T12:05:30;12.55;;;11.32;;
78989;SDS011;68390;52.130;21.218;2023-08-20T12:08:00;13.45;;;12.10;;
78989;SDS011;68390;52.130;21.218;2023-08-20T12:10:27;14.38;;;11.40;;
78989;SDS011;68390;52.130;21.218;2023-08-20T12:12:54;12.63;;;11.25;;
78989;SDS011;68390;52.130;21.218;2023-08-20T12:15:21;11.63;;;10.60;;
78989;SDS011;68390;52.130;21.218;2023-08-20T12:17:59;13.05;;;11.60;;
78989;SDS011;68390;52.130;21.218;2023-08-20T12:20:27;13.05;;;11.85;;
78989;SDS011;68390;52.130;21.218;2023-08-20T12:22:57;13.32;;;11.68;;
78989;SDS011;68390;52.130;21.218;2023-08-20T12:25:24;12.52;;;11.43;;
78989;SDS011;68390;52.130;21.218;2023-08-20T12:28:10;13.25;;;12.05;;
78989;SDS011;68390;52.130;21.218;2023-08-20T12:30:36;13.23;;;11.93;;
78989;SDS011;68390;52.130;21.218;2023-08-20T12:33:01;12.82;;;11.60;;
78989;SDS011;68390;52.130;21.218;2023-08-20T12:35:28;13.50;;;12.10;;
78989;SDS011;68390;52.130;21.218;2023-08-20T12:37:54;13.77;;;12.30;;
78989;SDS011;68390;52.130;21.218;2023-08-20T12:40:20;13.25;;;12.15;;
78989;SDS011;68390;52.130;21.218;2023-08-20T12:42:47;12.02;;;10.82;;
78989;SDS011;68390;52.130;21.218;2023-08-20T12:45:13;13.68;;;12.27;;
78989;SDS011;68390;52.130;21.218;2023-08-20T12:47:40;13.77;;;12.38;;
78989;SDS011;68390;52.130;21.218;2023-08-20T12:50:05;12.63;;;11.40;;
78989;SDS011;68390;52.130;21.218;2023-08-20T12:52:32;14.10;;;12.38;;
78989;SDS011;68390;52.130;21.218;2023-08-20T12:54:58;14.10;;;12.70;;
78989;SDS011;68390;52.130;21.218;2023-08-20T12:57:27;13.07;;;11.88;;
78989;SDS011;68390;52.130;21.218;2023-08-20T12:59:52;13.85;;;11.63;;
78989;SDS011;68390;52.130;21.218;2023-08-20T13:02:19;13.43;;;12.18;;
78989;SDS011;68390;52.130;21.218;2023-08-20T13:04:46;12.77;;;11.57;;
78989;SDS011;68390;52.130;21.218;2023-08-20T13:07:13;13.82;;;12.52;;
78989;SDS011;68390;52.130;21.218;2023-08-20T13:09:38;12.80;;;11.50;;
78989;SDS011;68390;52.130;21.218;2023-08-20T13:12:04;12.73;;;11.43;;
78989;SDS011;68390;52.130;21.218;2023-08-20T13:14:37;12.93;;;11.65;;
78989;SDS011;68390;52.130;21.218;2023-08-20T13:17:05;14.35;;;12.95;;
78989;SDS011;68390;52.130;21.218;2023-08-20T13:19:31;13.15;;;11.95;;
78989;SDS011;68390;52.130;21.218;2023-08-20T13:21:56;14.27;;;12.82;;
78989;SDS011;68390;52.130;21.218;2023-08-20T13:24:22;14.07;;;12.45;;
78989;SDS011;68390;52.130;21.218;2023-08-20T13:26:47;13.52;;;12.20;;
78989;SDS011;68390;52.130;21.218;2023-08-20T13:29:13;12.82;;;11.65;;
78989;SDS011;68390;52.130;21.218;2023-08-20T13:31:39;13.57;;;11.77;;
78989;SDS011;68390;52.130;21.218;2023-08-20T13:34:04;13.43;;;12.23;;
78989;SDS011;68390;52.130;21.218;2023-08-20T13:36:30;13.18;;;11.98;;
78989;SDS011;68390;52.130;21.218;2023-08-20T13:38:56;14.85;;;13.38;;
78989;SDS011;68390;52.130;21.218;2023-08-20T13:41:23;14.40;;;13.00;;
78989;SDS011;68390;52.130;21.218;2023-08-20T13:43:48;13.93;;;12.60;;
78989;SDS011;68390;52.130;21.218;2023-08-20T13:46:14;14.15;;;12.85;;
78989;SDS011;68390;52.130;21.218;2023-08-20T13:48:40;15.07;;;13.57;;
78989;SDS011;68390;52.130;21.218;2023-08-20T13:51:06;14.20;;;12.95;;
78989;SDS011;68390;52.130;21.218;2023-08-20T13:53:32;14.57;;;13.32;;
78989;SDS011;68390;52.130;21.218;2023-08-20T13:55:58;13.52;;;12.25;;
78989;SDS011;68390;52.130;21.218;2023-08-20T13:58:24;14.45;;;13.15;;
78989;SDS011;68390;52.130;21.218;2023-08-20T14:00:50;13.98;;;12.75;;
78989;SDS011;68390;52.130;21.218;2023-08-20T14:03:16;12.05;;;10.95;;
78989;SDS011;68390;52.130;21.218;2023-08-20T14:05:42;13.10;;;11.90;;
78989;SDS011;68390;52.130;21.218;2023-08-20T14:08:10;13.90;;;12.60;;
78989;SDS011;68390;52.130;21.218;2023-08-20T14:10:35;13.68;;;12.38;;
78989;SDS011;68390;52.130;21.218;2023-08-20T14:13:01;14.30;;;12.73;;
78989;SDS011;68390;52.130;21.218;2023-08-20T14:15:26;12.43;;;11.00;;
78989;SDS011;68390;52.130;21.218;2023-08-20T14:17:55;13.68;;;12.27;;
78989;SDS011;68390;52.130;21.218;2023-08-20T14:20:23;14.73;;;13.35;;
78989;SDS011;68390;52.130;21.218;2023-08-20T14:22:49;14.18;;;12.77;;
78989;SDS011;68390;52.130;21.218;2023-08-20T14:25:14;13.98;;;12.75;;
78989;SDS011;68390;52.130;21.218;2023-08-20T14:27:40;14.27;;;12.85;;